Aviation Digital Data Service (ADDS)

Output produced by METARs form (1901 UTC 22 August 2017)
found at http://aviationweather.gov/adds/metars/
 
KJXN 221730Z 2218/2318 27013G23KT P6SM VCSH OVC025 
     FM222100 33014G24KT P6SM BKN025 
     FM230000 29015G25KT P6SM SCT035 
     FM230300 30008KT P6SM SKC